createdAt,value
2022-12-03T00:00:12.470Z,3.00
2022-12-03T00:01:09.197Z,3.00
2022-12-03T00:02:08.223Z,2.98
2022-12-03T00:03:08.294Z,3.05
2022-12-03T00:04:08.256Z,3.00
2022-12-03T00:05:08.147Z,2.98
2022-12-03T00:06:08.156Z,2.95
2022-12-03T00:07:08.134Z,2.93
2022-12-03T00:08:08.176Z,2.91
2022-12-03T00:09:08.126Z,2.94
2022-12-03T00:10:08.136Z,2.91
2022-12-03T00:11:08.085Z,2.90
2022-12-03T00:12:08.117Z,2.88
2022-12-03T00:13:08.087Z,2.93
2022-12-03T00:14:08.078Z,2.94
2022-12-03T00:15:08.055Z,2.97
2022-12-03T00:16:08.153Z,2.95
2022-12-03T00:17:08.030Z,2.95
2022-12-03T00:18:08.017Z,2.94
2022-12-03T00:19:08.055Z,2.93
2022-12-03T00:20:08.005Z,2.90
2022-12-03T00:21:07.987Z,2.88
2022-12-03T00:22:07.983Z,2.93
2022-12-03T00:23:07.982Z,2.95
2022-12-03T00:24:07.952Z,2.95
2022-12-03T00:25:07.953Z,2.94
2022-12-03T00:26:07.944Z,2.90
2022-12-03T00:27:07.915Z,2.93
2022-12-03T00:28:07.923Z,2.97
2022-12-03T00:29:07.933Z,2.98
2022-12-03T00:30:07.910Z,3.00
2022-12-03T00:31:07.951Z,3.01
2022-12-03T00:32:07.880Z,3.00
2022-12-03T00:33:07.852Z,3.03
2022-12-03T00:34:07.872Z,2.97
2022-12-03T00:35:07.851Z,3.00
2022-12-03T00:36:07.833Z,3.01
2022-12-03T00:37:07.811Z,3.01
2022-12-03T00:38:07.816Z,3.00
2022-12-03T00:39:07.790Z,3.00
2022-12-03T00:40:07.819Z,2.97
2022-12-03T00:41:07.761Z,3.03
2022-12-03T00:42:07.764Z,3.00
2022-12-03T00:43:07.760Z,3.03
2022-12-03T00:44:07.745Z,3.05
2022-12-03T00:45:07.739Z,3.03
2022-12-03T00:46:07.760Z,3.05
2022-12-03T00:47:07.736Z,3.03
2022-12-03T00:48:07.698Z,3.00
2022-12-03T00:49:07.699Z,3.01
2022-12-03T00:50:07.680Z,3.03
2022-12-03T00:51:07.669Z,3.01
2022-12-03T00:52:07.657Z,3.03
2022-12-03T00:53:07.638Z,3.06
2022-12-03T00:54:07.627Z,3.03
2022-12-03T00:55:07.639Z,3.03
2022-12-03T00:56:07.614Z,3.03
2022-12-03T00:57:07.609Z,2.98
2022-12-03T00:58:07.598Z,2.98
2022-12-03T00:59:07.578Z,2.98
2022-12-03T01:00:07.572Z,3.03
2022-12-03T01:01:07.555Z,3.05
2022-12-03T01:02:07.623Z,3.03
2022-12-03T01:03:07.527Z,3.03
2022-12-03T01:04:07.652Z,3.00
2022-12-03T01:05:07.607Z,2.97
2022-12-03T01:06:07.499Z,2.95
2022-12-03T01:07:07.487Z,3.00
2022-12-03T01:08:07.565Z,3.01
2022-12-03T01:09:07.467Z,3.01
2022-12-03T01:10:07.471Z,3.03
2022-12-03T01:11:07.447Z,3.01
2022-12-03T01:12:07.435Z,3.01
2022-12-03T01:13:07.438Z,2.97
2022-12-03T01:14:07.413Z,2.94
2022-12-03T01:15:07.415Z,2.94
2022-12-03T01:16:07.428Z,2.95
2022-12-03T01:17:07.406Z,2.94
2022-12-03T01:18:07.371Z,2.94
2022-12-03T01:19:07.370Z,2.95
2022-12-03T01:20:07.367Z,2.98
2022-12-03T01:21:07.343Z,2.98
2022-12-03T01:22:07.327Z,2.97
2022-12-03T01:23:07.324Z,3.00
2022-12-03T01:24:07.303Z,3.01
2022-12-03T01:25:07.316Z,3.03
2022-12-03T01:26:07.293Z,3.01
2022-12-03T01:27:07.281Z,3.05
2022-12-03T01:28:07.262Z,3.03
2022-12-03T01:29:07.264Z,3.03
2022-12-03T01:30:07.255Z,3.01
2022-12-03T01:31:07.284Z,3.03
2022-12-03T01:32:07.261Z,2.98
2022-12-03T01:33:07.218Z,2.98
2022-12-03T01:34:07.212Z,3.01
2022-12-03T01:35:07.203Z,3.03
2022-12-03T01:36:07.179Z,3.03
2022-12-03T01:37:07.180Z,3.05
2022-12-03T01:38:07.161Z,3.01
2022-12-03T01:39:07.160Z,3.00
2022-12-03T01:40:07.131Z,2.98
2022-12-03T01:41:11.512Z,3.00
2022-12-03T01:42:07.121Z,2.95
2022-12-03T01:43:07.124Z,2.93
2022-12-03T01:44:07.088Z,2.94
2022-12-03T01:45:07.079Z,2.94
2022-12-03T01:46:07.145Z,2.98
2022-12-03T01:47:07.183Z,2.97
2022-12-03T01:48:07.049Z,2.97
2022-12-03T01:49:07.039Z,3.00
2022-12-03T01:50:07.047Z,3.01
2022-12-03T01:51:07.039Z,2.97
2022-12-03T01:52:06.999Z,2.97
2022-12-03T01:53:06.997Z,2.98
2022-12-03T01:54:06.981Z,3.01
2022-12-03T01:55:06.976Z,3.00
2022-12-03T01:56:06.978Z,3.00
2022-12-03T01:57:06.960Z,3.01
2022-12-03T01:58:06.948Z,2.98
2022-12-03T01:59:06.936Z,3.00
2022-12-03T02:00:06.931Z,3.01
2022-12-03T02:01:06.921Z,3.01
2022-12-03T02:02:06.955Z,3.00
2022-12-03T02:03:06.897Z,3.00
2022-12-03T02:04:06.912Z,3.03
2022-12-03T02:05:06.882Z,3.01
2022-12-03T02:06:06.915Z,2.98
2022-12-03T02:07:06.847Z,3.01
2022-12-03T02:08:06.870Z,2.97
2022-12-03T02:09:06.843Z,3.00
2022-12-03T02:10:06.817Z,3.01
2022-12-03T02:11:06.818Z,2.95
2022-12-03T02:12:06.806Z,2.97
2022-12-03T02:13:06.799Z,2.97
2022-12-03T02:14:06.808Z,2.97
2022-12-03T02:15:06.782Z,3.00
2022-12-03T02:16:06.800Z,3.00
2022-12-03T02:17:06.747Z,3.01
2022-12-03T02:18:06.728Z,3.00
2022-12-03T02:19:06.725Z,2.98
2022-12-03T02:20:06.701Z,3.01
2022-12-03T02:21:06.814Z,3.01
2022-12-03T02:22:06.710Z,2.97
2022-12-03T02:23:06.673Z,2.97
2022-12-03T02:24:06.678Z,2.97
2022-12-03T02:25:06.713Z,3.00
2022-12-03T02:26:06.661Z,2.95
2022-12-03T02:27:06.633Z,2.95
2022-12-03T02:28:06.663Z,2.95
2022-12-03T02:29:06.623Z,3.00
2022-12-03T02:30:06.605Z,2.97
2022-12-03T02:31:06.663Z,2.98
2022-12-03T02:32:06.587Z,2.94
2022-12-03T02:33:06.570Z,2.98
2022-12-03T02:34:06.570Z,2.98
2022-12-03T02:35:06.563Z,2.95
2022-12-03T02:36:06.543Z,2.97
2022-12-03T02:37:06.531Z,2.97
2022-12-03T02:38:06.543Z,2.98
2022-12-03T02:39:06.522Z,3.00
2022-12-03T02:40:06.514Z,2.98
2022-12-03T02:41:06.502Z,2.98
2022-12-03T02:42:06.482Z,2.98
2022-12-03T02:43:06.470Z,3.00
2022-12-03T02:44:06.448Z,3.00
2022-12-03T02:45:06.450Z,2.98
2022-12-03T02:46:06.453Z,2.95
2022-12-03T02:47:06.539Z,2.95
2022-12-03T02:48:06.431Z,2.97
2022-12-03T02:49:06.409Z,2.97
2022-12-03T02:50:06.407Z,2.95
2022-12-03T02:51:06.428Z,2.94
2022-12-03T02:52:06.379Z,2.94
2022-12-03T02:53:06.359Z,2.95
2022-12-03T02:54:06.347Z,2.97
2022-12-03T02:55:06.338Z,2.94
2022-12-03T02:56:06.316Z,2.94
2022-12-03T02:57:06.344Z,2.98
2022-12-03T02:58:06.337Z,2.94
2022-12-03T02:59:06.319Z,2.97
2022-12-03T03:00:06.441Z,2.97
2022-12-03T03:01:06.362Z,2.95
2022-12-03T03:02:06.332Z,2.94
2022-12-03T03:03:06.257Z,2.98
2022-12-03T03:04:06.246Z,2.97
2022-12-03T03:05:06.228Z,2.94
2022-12-03T03:06:06.295Z,2.95
2022-12-03T03:07:06.250Z,2.95
2022-12-03T03:08:06.375Z,2.90
2022-12-03T03:09:06.180Z,2.93
2022-12-03T03:10:06.184Z,2.85
2022-12-03T03:11:06.160Z,2.90
2022-12-03T03:12:06.194Z,2.91
2022-12-03T03:13:06.134Z,2.91
2022-12-03T03:14:06.126Z,2.91
2022-12-03T03:15:06.154Z,2.91
2022-12-03T03:16:06.146Z,2.88
2022-12-03T03:17:06.106Z,2.91
2022-12-03T03:18:06.078Z,2.93
2022-12-03T03:19:06.082Z,2.90
2022-12-03T03:20:06.062Z,2.90
2022-12-03T03:21:06.047Z,2.91
2022-12-03T03:22:06.044Z,2.90
2022-12-03T03:23:06.059Z,2.88
2022-12-03T03:24:06.013Z,2.85
2022-12-03T03:25:06.005Z,2.90
2022-12-03T03:26:06.006Z,2.90
2022-12-03T03:27:06.024Z,2.82
2022-12-03T03:28:06.037Z,2.80
2022-12-03T03:29:05.974Z,2.82
2022-12-03T03:30:05.953Z,2.83
2022-12-03T03:31:05.953Z,2.85
2022-12-03T03:32:05.972Z,2.88
2022-12-03T03:33:05.923Z,2.91
2022-12-03T03:34:05.914Z,2.88
2022-12-03T03:35:05.902Z,2.87
2022-12-03T03:36:05.907Z,2.88
2022-12-03T03:37:05.910Z,2.85
2022-12-03T03:38:05.982Z,2.83
2022-12-03T03:39:05.851Z,2.87
2022-12-03T03:40:05.840Z,2.82
2022-12-03T03:41:05.831Z,2.87
2022-12-03T03:42:05.842Z,2.88
2022-12-03T03:43:05.809Z,2.87
2022-12-03T03:44:05.804Z,2.87
2022-12-03T03:45:05.793Z,2.88
2022-12-03T03:46:05.835Z,2.90
2022-12-03T03:47:05.781Z,2.88
2022-12-03T03:48:05.759Z,2.91
2022-12-03T03:49:05.766Z,2.87
2022-12-03T03:50:05.739Z,2.88
2022-12-03T03:51:05.743Z,2.85
2022-12-03T03:52:05.739Z,2.88
2022-12-03T03:53:05.710Z,2.87
2022-12-03T03:54:05.688Z,2.83
2022-12-03T03:55:05.679Z,2.83
2022-12-03T03:56:05.677Z,2.80
2022-12-03T03:57:05.669Z,2.82
2022-12-03T03:58:05.660Z,2.83
2022-12-03T03:59:05.636Z,2.83
2022-12-03T04:00:05.637Z,2.85
2022-12-03T04:01:05.663Z,2.85
2022-12-03T04:02:05.618Z,2.87
2022-12-03T04:03:05.599Z,2.85
2022-12-03T04:04:05.620Z,2.82
2022-12-03T04:05:05.577Z,2.83
2022-12-03T04:06:05.618Z,2.80
2022-12-03T04:07:05.557Z,2.85
2022-12-03T04:08:05.637Z,2.83
2022-12-03T04:09:05.531Z,2.85
2022-12-03T04:10:05.525Z,2.83
2022-12-03T04:11:05.540Z,2.85
2022-12-03T04:12:05.537Z,2.83
2022-12-03T04:13:05.487Z,2.82
2022-12-03T04:14:05.477Z,2.83
2022-12-03T04:15:05.467Z,2.87
2022-12-03T04:16:05.555Z,2.85
2022-12-03T04:17:05.456Z,2.85
2022-12-03T04:18:05.445Z,2.87
2022-12-03T04:19:05.439Z,2.88
2022-12-03T04:20:05.434Z,2.88
2022-12-03T04:21:05.426Z,2.88
2022-12-03T04:22:05.404Z,2.88
2022-12-03T04:23:05.391Z,2.88
2022-12-03T04:24:05.376Z,2.85
2022-12-03T04:25:05.361Z,2.88
2022-12-03T04:26:05.370Z,2.85
2022-12-03T04:27:05.395Z,2.90
2022-12-03T04:28:05.342Z,2.88
2022-12-03T04:29:05.330Z,2.87
2022-12-03T04:30:05.332Z,2.85
2022-12-03T04:31:05.441Z,2.88
2022-12-03T04:32:05.294Z,2.85
2022-12-03T04:33:05.291Z,2.79
2022-12-03T04:34:05.272Z,2.79
2022-12-03T04:35:05.321Z,2.79
2022-12-03T04:36:05.249Z,2.79
2022-12-03T04:37:05.232Z,2.82
2022-12-03T04:38:05.244Z,2.83
2022-12-03T04:39:05.219Z,2.87
2022-12-03T04:40:05.212Z,2.82
2022-12-03T04:41:05.194Z,2.82
2022-12-03T04:42:05.193Z,2.79
2022-12-03T04:43:05.200Z,2.82
2022-12-03T04:44:05.160Z,2.82
2022-12-03T04:45:05.156Z,2.82
2022-12-03T04:46:05.204Z,2.85
2022-12-03T04:47:05.129Z,2.87
2022-12-03T04:48:05.131Z,2.85
2022-12-03T04:49:05.123Z,2.85
2022-12-03T04:50:05.104Z,2.83
2022-12-03T04:51:05.089Z,2.85
2022-12-03T04:52:05.076Z,2.83
2022-12-03T04:53:05.069Z,2.85
2022-12-03T04:54:05.057Z,2.82
2022-12-03T04:55:05.038Z,2.83
2022-12-03T04:56:05.028Z,2.83
2022-12-03T04:57:05.017Z,2.85
2022-12-03T04:58:05.019Z,2.83
2022-12-03T04:59:05.000Z,2.85
2022-12-03T05:00:04.985Z,2.82
2022-12-03T05:01:05.009Z,2.82
2022-12-03T05:02:05.020Z,2.80
2022-12-03T05:03:05.031Z,2.80
2022-12-03T05:04:04.969Z,2.80
2022-12-03T05:05:04.929Z,2.83
2022-12-03T05:06:04.942Z,2.80
2022-12-03T05:07:04.909Z,2.80
2022-12-03T05:08:04.976Z,2.79
2022-12-03T05:09:04.937Z,2.82
2022-12-03T05:10:04.883Z,2.82
2022-12-03T05:11:04.865Z,2.80
2022-12-03T05:12:04.869Z,2.79
2022-12-03T05:13:04.883Z,2.80
2022-12-03T05:14:04.931Z,2.76
2022-12-03T05:15:04.878Z,2.79
2022-12-03T05:16:04.824Z,2.82
2022-12-03T05:17:04.954Z,2.80
2022-12-03T05:18:04.826Z,2.80
2022-12-03T05:19:04.783Z,2.77
2022-12-03T05:20:04.775Z,2.76
2022-12-03T05:21:04.753Z,2.75
2022-12-03T05:22:04.765Z,2.75
2022-12-03T05:23:04.747Z,2.72
2022-12-03T05:24:04.755Z,2.72
2022-12-03T05:25:04.720Z,2.75
2022-12-03T05:26:04.708Z,2.75
2022-12-03T05:27:04.705Z,2.72
2022-12-03T05:28:04.702Z,2.68
2022-12-03T05:29:04.675Z,2.70
2022-12-03T05:30:04.675Z,2.70
2022-12-03T05:31:04.716Z,2.72
2022-12-03T05:32:04.642Z,2.68
2022-12-03T05:33:04.633Z,2.68
2022-12-03T05:34:04.642Z,2.65
2022-12-03T05:35:04.621Z,2.64
2022-12-03T05:36:04.602Z,2.62
2022-12-03T05:37:04.583Z,2.65
2022-12-03T05:38:04.589Z,2.68
2022-12-03T05:39:04.600Z,2.69
2022-12-03T05:40:04.584Z,2.70
2022-12-03T05:41:04.552Z,2.73
2022-12-03T05:42:04.540Z,2.70
2022-12-03T05:43:04.533Z,2.72
2022-12-03T05:44:04.532Z,2.70
2022-12-03T05:45:04.511Z,2.75
2022-12-03T05:46:04.542Z,2.70
2022-12-03T05:47:04.487Z,2.72
2022-12-03T05:48:04.479Z,2.73
2022-12-03T05:49:04.478Z,2.72
2022-12-03T05:50:04.458Z,2.69
2022-12-03T05:51:04.439Z,2.72
2022-12-03T05:52:04.430Z,2.73
2022-12-03T05:53:04.410Z,2.75
2022-12-03T05:54:04.418Z,2.75
2022-12-03T05:55:04.399Z,2.75
2022-12-03T05:56:04.446Z,2.73
2022-12-03T05:57:04.371Z,2.73
2022-12-03T05:58:04.376Z,2.72
2022-12-03T05:59:04.377Z,2.61
2022-12-03T06:00:04.356Z,2.62
2022-12-03T06:01:04.369Z,2.65
2022-12-03T06:02:04.366Z,2.65
2022-12-03T06:03:04.436Z,2.69
2022-12-03T06:04:04.393Z,2.68
2022-12-03T06:05:04.285Z,2.69
2022-12-03T06:06:04.297Z,2.65
2022-12-03T06:07:04.277Z,2.69
2022-12-03T06:08:04.321Z,2.65
2022-12-03T06:09:04.256Z,2.69
2022-12-03T06:10:04.254Z,2.68
2022-12-03T06:11:04.225Z,2.70
2022-12-03T06:12:04.239Z,2.69
2022-12-03T06:13:04.199Z,2.68
2022-12-03T06:14:04.196Z,2.69
2022-12-03T06:15:04.188Z,2.61
2022-12-03T06:16:04.220Z,2.64
2022-12-03T06:17:04.144Z,2.65
2022-12-03T06:18:04.147Z,2.62
2022-12-03T06:19:04.153Z,2.65
2022-12-03T06:20:04.127Z,2.64
2022-12-03T06:21:04.216Z,2.64
2022-12-03T06:22:04.103Z,2.61
2022-12-03T06:23:04.102Z,2.61
2022-12-03T06:24:04.097Z,2.59
2022-12-03T06:25:06.830Z,2.62
2022-12-03T06:26:04.054Z,2.59
2022-12-03T06:27:04.061Z,2.59
2022-12-03T06:28:04.042Z,2.59
2022-12-03T06:29:04.032Z,2.55
2022-12-03T06:30:04.012Z,2.59
2022-12-03T06:31:04.044Z,2.59
2022-12-03T06:32:03.994Z,2.58
2022-12-03T06:33:03.992Z,2.62
2022-12-03T06:34:03.983Z,2.58
2022-12-03T06:35:03.953Z,2.61
2022-12-03T06:36:03.942Z,2.62
2022-12-03T06:37:03.941Z,2.54
2022-12-03T06:38:03.923Z,2.51
2022-12-03T06:39:03.948Z,2.52
2022-12-03T06:40:03.936Z,2.55
2022-12-03T06:41:03.889Z,2.59
2022-12-03T06:42:03.835Z,2.58
2022-12-03T06:43:03.833Z,2.59
2022-12-03T06:44:03.821Z,2.59
2022-12-03T06:45:03.789Z,2.61
2022-12-03T06:46:03.840Z,2.61
2022-12-03T06:47:03.845Z,2.59
2022-12-03T06:48:03.771Z,2.62
2022-12-03T06:49:03.771Z,2.58
2022-12-03T06:50:03.758Z,2.61
2022-12-03T06:51:03.738Z,2.64
2022-12-03T06:52:03.729Z,2.59
2022-12-03T06:53:03.817Z,2.61
2022-12-03T06:54:03.709Z,2.55
2022-12-03T06:55:03.732Z,2.55
2022-12-03T06:56:03.720Z,2.54
2022-12-03T06:57:03.669Z,2.52
2022-12-03T06:58:03.657Z,2.52
2022-12-03T06:59:03.667Z,2.55
2022-12-03T07:00:03.659Z,2.52
2022-12-03T07:01:03.682Z,2.51
2022-12-03T07:02:03.710Z,2.50
2022-12-03T07:03:03.790Z,2.54
2022-12-03T07:04:03.597Z,2.52
2022-12-03T07:05:03.593Z,2.54
2022-12-03T07:06:03.584Z,2.47
2022-12-03T07:07:03.567Z,2.54
2022-12-03T07:08:03.661Z,2.52
2022-12-03T07:09:03.584Z,2.46
2022-12-03T07:10:03.553Z,2.41
2022-12-03T07:11:03.519Z,2.50
2022-12-03T07:12:03.552Z,2.51
2022-12-03T07:13:03.525Z,2.52
2022-12-03T07:14:05.794Z,2.51
2022-12-03T07:15:03.478Z,2.52
2022-12-03T07:16:03.491Z,2.52
2022-12-03T07:17:03.462Z,2.51
2022-12-03T07:18:03.452Z,2.51
2022-12-03T07:19:03.444Z,2.54
2022-12-03T07:20:03.443Z,2.54
2022-12-03T07:21:03.404Z,2.54
2022-12-03T07:22:03.456Z,2.55
2022-12-03T07:23:03.444Z,2.55
2022-12-03T07:24:03.446Z,2.55
2022-12-03T07:25:03.376Z,2.55
2022-12-03T07:26:03.363Z,2.54
2022-12-03T07:27:03.415Z,2.57
2022-12-03T07:28:03.364Z,2.55
2022-12-03T07:29:03.326Z,2.57
2022-12-03T07:30:03.330Z,2.54
2022-12-03T07:31:03.399Z,2.50
2022-12-03T07:32:03.301Z,2.52
2022-12-03T07:33:03.300Z,2.57
2022-12-03T07:34:03.272Z,2.59
2022-12-03T07:35:03.274Z,2.59
2022-12-03T07:36:03.278Z,2.59
2022-12-03T07:37:03.272Z,2.57
2022-12-03T07:38:03.242Z,2.55
2022-12-03T07:39:03.233Z,2.55
2022-12-03T07:40:03.253Z,2.58
2022-12-03T07:41:03.210Z,2.61
2022-12-03T07:42:03.228Z,2.58
2022-12-03T07:43:03.171Z,2.61
2022-12-03T07:44:04.718Z,2.61
2022-12-03T07:45:03.167Z,2.64
2022-12-03T07:46:03.287Z,2.62
2022-12-03T07:47:03.269Z,2.62
2022-12-03T07:48:03.238Z,2.59
2022-12-03T07:49:03.122Z,2.62
2022-12-03T07:50:03.120Z,2.59
2022-12-03T07:51:03.301Z,2.61
2022-12-03T07:52:03.079Z,2.61
2022-12-03T07:53:03.078Z,2.62
2022-12-03T07:54:03.101Z,2.62
2022-12-03T07:55:03.155Z,2.62
2022-12-03T07:56:03.065Z,2.64
2022-12-03T07:57:03.044Z,2.61
2022-12-03T07:58:03.017Z,2.59
2022-12-03T07:59:03.021Z,2.61
2022-12-03T08:00:03.014Z,2.62
2022-12-03T08:01:03.105Z,2.61
2022-12-03T08:02:03.066Z,2.62
2022-12-03T08:03:03.015Z,2.61
2022-12-03T08:04:02.967Z,2.59
2022-12-03T08:05:02.973Z,2.59
2022-12-03T08:06:02.940Z,2.54
2022-12-03T08:07:02.985Z,2.54
2022-12-03T08:08:02.957Z,2.59
2022-12-03T08:09:02.916Z,2.61
2022-12-03T08:10:02.913Z,2.64
2022-12-03T08:11:02.905Z,2.65
2022-12-03T08:12:02.867Z,2.64
2022-12-03T08:13:02.876Z,2.68
2022-12-03T08:14:02.898Z,2.68
2022-12-03T08:15:02.857Z,2.68
2022-12-03T08:16:02.867Z,2.64
2022-12-03T08:17:02.866Z,2.61
2022-12-03T08:18:02.805Z,2.61
2022-12-03T08:19:02.795Z,2.62
2022-12-03T08:20:02.787Z,2.64
2022-12-03T08:21:02.798Z,2.68
2022-12-03T08:22:02.763Z,2.68
2022-12-03T08:23:02.766Z,2.69
2022-12-03T08:24:02.777Z,2.68
2022-12-03T08:25:02.745Z,2.70
2022-12-03T08:26:02.747Z,2.70
2022-12-03T08:27:02.705Z,2.76
2022-12-03T08:28:02.727Z,2.77
2022-12-03T08:29:02.729Z,2.80
2022-12-03T08:30:02.787Z,2.82
2022-12-03T08:31:02.685Z,2.79
2022-12-03T08:32:02.751Z,2.80
2022-12-03T08:33:02.679Z,2.79
2022-12-03T08:34:02.714Z,2.80
2022-12-03T08:35:02.653Z,2.83
2022-12-03T08:36:02.685Z,2.85
2022-12-03T08:37:02.610Z,2.83
2022-12-03T08:38:02.634Z,2.83
2022-12-03T08:39:02.631Z,2.85
2022-12-03T08:40:02.580Z,2.90
2022-12-03T08:41:02.585Z,2.91
2022-12-03T08:42:02.564Z,2.91
2022-12-03T08:43:02.538Z,2.93
2022-12-03T08:44:02.562Z,2.94
2022-12-03T08:45:02.604Z,2.95
2022-12-03T08:46:02.611Z,2.97
2022-12-03T08:47:02.534Z,3.01
2022-12-03T08:48:02.477Z,3.03
2022-12-03T08:49:02.472Z,3.05
2022-12-03T08:50:02.511Z,3.08
2022-12-03T08:51:02.554Z,3.05
2022-12-03T08:52:02.552Z,3.06
2022-12-03T08:53:02.443Z,3.09
2022-12-03T08:54:02.609Z,3.09
2022-12-03T08:55:02.459Z,3.06
2022-12-03T08:56:02.405Z,3.00
2022-12-03T08:57:02.461Z,2.97
2022-12-03T08:58:02.477Z,2.97
2022-12-03T08:59:02.371Z,3.00
2022-12-03T09:00:02.350Z,2.97
2022-12-03T09:01:02.426Z,2.91
2022-12-03T09:02:02.362Z,2.87
2022-12-03T09:03:02.320Z,2.82
2022-12-03T09:04:02.393Z,2.83
2022-12-03T09:05:02.323Z,2.90
2022-12-03T09:06:02.325Z,2.93
2022-12-03T09:07:02.306Z,2.97
2022-12-03T09:08:02.347Z,2.98
2022-12-03T09:09:06.563Z,3.00
2022-12-03T09:10:02.252Z,3.06
2022-12-03T09:11:02.279Z,3.15
2022-12-03T09:12:02.248Z,3.15
2022-12-03T09:13:02.257Z,3.18
2022-12-03T09:14:02.221Z,3.21
2022-12-03T09:15:02.238Z,3.24
2022-12-03T09:16:02.264Z,3.24
2022-12-03T09:17:02.282Z,3.26
2022-12-03T09:18:02.225Z,3.18
2022-12-03T09:19:02.202Z,3.19
2022-12-03T09:20:02.132Z,3.19
2022-12-03T09:21:02.176Z,3.21
2022-12-03T09:22:02.150Z,3.13
2022-12-03T09:23:02.107Z,3.18
2022-12-03T09:24:02.096Z,3.21
2022-12-03T09:25:02.087Z,3.22
2022-12-03T09:26:02.076Z,3.21
2022-12-03T09:27:02.066Z,3.27
2022-12-03T09:28:02.066Z,3.31
2022-12-03T09:29:02.572Z,3.33
2022-12-03T09:30:02.027Z,3.34
2022-12-03T09:31:02.027Z,3.33
2022-12-03T09:32:02.154Z,3.27
2022-12-03T09:33:02.010Z,3.27
2022-12-03T09:34:02.024Z,3.22
2022-12-03T09:35:01.994Z,3.21
2022-12-03T09:36:01.967Z,3.12
2022-12-03T09:37:01.955Z,3.09
2022-12-03T09:38:01.945Z,3.01
2022-12-03T09:39:01.936Z,3.03
2022-12-03T09:40:01.978Z,3.03
2022-12-03T09:41:01.943Z,3.01
2022-12-03T09:42:01.904Z,3.03
2022-12-03T09:43:01.888Z,3.01
2022-12-03T09:44:04.446Z,3.05
2022-12-03T09:45:01.919Z,2.94
2022-12-03T09:46:01.937Z,2.94
2022-12-03T09:47:01.876Z,2.98
2022-12-03T09:48:01.835Z,2.98
2022-12-03T09:49:01.844Z,3.06
2022-12-03T09:50:01.861Z,3.08
2022-12-03T09:51:01.806Z,3.13
2022-12-03T09:52:01.913Z,3.13
2022-12-03T09:53:01.824Z,3.16
2022-12-03T09:54:01.806Z,3.13
2022-12-03T09:55:01.812Z,3.18
2022-12-03T09:56:01.755Z,3.15
2022-12-03T09:57:01.763Z,3.11
2022-12-03T09:58:01.752Z,3.09
2022-12-03T09:59:01.751Z,3.13
2022-12-03T10:00:01.738Z,3.19
2022-12-03T10:01:01.801Z,3.21
2022-12-03T10:02:01.806Z,3.21
2022-12-03T10:03:01.679Z,3.26
2022-12-03T10:04:01.689Z,3.22
2022-12-03T10:05:01.770Z,3.26
2022-12-03T10:06:01.662Z,3.29
2022-12-03T10:07:01.652Z,3.26
2022-12-03T10:08:01.759Z,3.16
2022-12-03T10:09:01.679Z,3.19
2022-12-03T10:10:01.612Z,3.19
2022-12-03T10:11:01.601Z,3.19
2022-12-03T10:12:01.595Z,3.19
2022-12-03T10:13:01.607Z,3.18
2022-12-03T10:14:01.584Z,3.22
2022-12-03T10:15:01.590Z,3.22
2022-12-03T10:16:01.595Z,3.22
2022-12-03T10:17:01.732Z,3.24
2022-12-03T10:18:01.527Z,3.22
2022-12-03T10:19:01.522Z,3.26
2022-12-03T10:20:01.512Z,3.26
2022-12-03T10:21:01.564Z,3.24
2022-12-03T10:22:01.495Z,3.26
2022-12-03T10:23:01.469Z,3.19
2022-12-03T10:24:01.458Z,3.18
2022-12-03T10:25:01.491Z,3.22
2022-12-03T10:26:01.429Z,3.26
2022-12-03T10:27:01.462Z,3.30
2022-12-03T10:28:01.413Z,3.33
2022-12-03T10:29:01.407Z,3.30
2022-12-03T10:30:01.439Z,3.29
2022-12-03T10:31:01.440Z,3.31
2022-12-03T10:32:01.448Z,3.31
2022-12-03T10:33:01.366Z,3.34
2022-12-03T10:34:01.368Z,3.37
2022-12-03T10:35:01.358Z,3.41
2022-12-03T10:36:01.443Z,3.30
2022-12-03T10:37:01.327Z,3.24
2022-12-03T10:38:01.418Z,3.24
2022-12-03T10:39:01.297Z,3.30
2022-12-03T10:40:01.356Z,3.31
2022-12-03T10:41:01.364Z,3.29
2022-12-03T10:42:01.258Z,3.29
2022-12-03T10:43:01.291Z,3.30
2022-12-03T10:44:01.246Z,3.37
2022-12-03T10:45:01.287Z,3.45
2022-12-03T10:46:04.171Z,3.46
2022-12-03T10:47:01.331Z,3.49
2022-12-03T10:48:01.258Z,3.56
2022-12-03T10:49:01.279Z,3.59
2022-12-03T10:50:01.193Z,3.63
2022-12-03T10:51:01.167Z,3.66
2022-12-03T10:52:01.170Z,3.67
2022-12-03T10:53:01.174Z,3.64
2022-12-03T10:54:01.204Z,3.63
2022-12-03T10:55:01.184Z,3.67
2022-12-03T10:56:01.125Z,3.77
2022-12-03T10:57:01.107Z,3.86
2022-12-03T10:58:01.191Z,3.94
2022-12-03T10:59:01.130Z,3.99
2022-12-03T11:00:01.071Z,3.99
2022-12-03T11:01:01.145Z,4.04
2022-12-03T11:02:01.339Z,3.92
2022-12-03T11:03:01.105Z,3.86
2022-12-03T11:04:01.163Z,3.67
2022-12-03T11:05:01.056Z,3.68
2022-12-03T11:06:01.033Z,3.71
2022-12-03T11:07:01.064Z,3.63
2022-12-03T11:08:01.065Z,3.58
2022-12-03T11:09:06.886Z,3.59
2022-12-03T11:10:02.076Z,3.61
2022-12-03T11:11:00.952Z,3.59
2022-12-03T11:12:00.965Z,3.56
2022-12-03T11:13:00.968Z,3.49
2022-12-03T11:14:00.960Z,3.53
2022-12-03T11:15:01.000Z,3.58
2022-12-03T11:16:00.996Z,3.63
2022-12-03T11:17:00.917Z,3.64
2022-12-03T11:18:00.890Z,3.67
2022-12-03T11:19:00.910Z,3.73
2022-12-03T11:20:00.860Z,3.64
2022-12-03T11:21:00.854Z,3.53
2022-12-03T11:22:00.845Z,3.53
2022-12-03T11:23:00.927Z,3.58
2022-12-03T11:24:00.867Z,3.63
2022-12-03T11:25:00.810Z,3.67
2022-12-03T11:26:00.806Z,3.74
2022-12-03T11:27:00.809Z,3.76
2022-12-03T11:28:00.807Z,3.71
2022-12-03T11:29:00.814Z,3.61
2022-12-03T11:30:00.796Z,3.49
2022-12-03T11:31:00.775Z,3.56
2022-12-03T11:32:00.775Z,3.50
2022-12-03T11:33:00.760Z,3.46
2022-12-03T11:34:00.769Z,3.45
2022-12-03T11:35:00.698Z,3.45
2022-12-03T11:36:00.700Z,3.41
2022-12-03T11:37:02.083Z,3.55
2022-12-03T11:38:00.709Z,3.46
2022-12-03T11:39:00.679Z,3.46
2022-12-03T11:40:00.707Z,3.43
2022-12-03T11:41:00.640Z,3.43
2022-12-03T11:42:00.662Z,3.40
2022-12-03T11:43:00.643Z,3.45
2022-12-03T11:44:00.598Z,3.46
2022-12-03T11:45:00.623Z,3.46
2022-12-03T11:46:04.198Z,3.45
2022-12-03T11:47:00.647Z,3.46
2022-12-03T11:48:00.588Z,3.46
2022-12-03T11:49:00.598Z,3.46
2022-12-03T11:50:00.540Z,3.53
2022-12-03T11:51:00.537Z,3.49
2022-12-03T11:52:00.637Z,3.45
2022-12-03T11:53:00.507Z,3.48
2022-12-03T11:54:00.514Z,3.45
2022-12-03T11:55:00.551Z,3.46
2022-12-03T11:56:04.343Z,3.49
2022-12-03T11:57:00.469Z,3.50
2022-12-03T11:58:00.457Z,3.43
2022-12-03T11:59:00.459Z,3.26
2022-12-03T12:00:00.453Z,3.31
2022-12-03T12:01:00.418Z,3.21
2022-12-03T12:02:00.451Z,3.12
2022-12-03T12:03:00.560Z,3.13
2022-12-03T12:04:00.487Z,3.12
2022-12-03T12:05:00.459Z,3.09
2022-12-03T12:06:00.362Z,3.18
2022-12-03T12:07:00.374Z,3.22
2022-12-03T12:08:00.498Z,3.19
2022-12-03T12:09:00.334Z,3.26
2022-12-03T12:10:00.338Z,3.27
2022-12-03T12:11:00.496Z,3.22
2022-12-03T12:12:00.313Z,3.16
2022-12-03T12:13:00.283Z,3.16
2022-12-03T12:14:00.331Z,3.13
2022-12-03T12:15:00.274Z,3.19
2022-12-03T12:16:00.362Z,3.29
2022-12-03T12:17:00.262Z,3.37
2022-12-03T12:18:00.273Z,3.36
2022-12-03T12:19:00.243Z,3.40
2022-12-03T12:20:00.534Z,3.45
2022-12-03T12:21:00.256Z,3.37
2022-12-03T12:22:00.207Z,3.22
2022-12-03T12:23:00.211Z,3.13
2022-12-03T12:24:00.196Z,3.13
2022-12-03T12:25:00.167Z,3.22
2022-12-03T12:26:00.164Z,3.22
2022-12-03T12:27:00.210Z,3.31
2022-12-03T12:28:00.132Z,3.27
2022-12-03T12:29:00.204Z,3.21
2022-12-03T12:30:00.138Z,3.12
2022-12-03T12:31:00.179Z,3.16
2022-12-03T12:32:00.205Z,3.19
2022-12-03T12:33:00.084Z,3.21
2022-12-03T12:34:00.079Z,3.26
2022-12-03T12:35:00.081Z,3.24
2022-12-03T12:36:00.066Z,3.27
2022-12-03T12:37:00.037Z,3.24
2022-12-03T12:38:00.731Z,3.26
2022-12-03T12:39:00.052Z,3.21
2022-12-03T12:40:00.198Z,3.27
2022-12-03T12:41:00.034Z,3.33
2022-12-03T12:41:59.978Z,3.40
2022-12-03T12:42:59.977Z,3.40
2022-12-03T12:43:59.987Z,3.40
2022-12-03T12:45:00.009Z,3.40
2022-12-03T12:46:13.657Z,3.34
2022-12-03T12:47:01.057Z,3.26
2022-12-03T12:47:59.949Z,3.21
2022-12-03T12:49:00.220Z,3.19
2022-12-03T12:49:59.937Z,3.22
2022-12-03T12:50:59.878Z,3.16
2022-12-03T12:51:59.878Z,3.12
2022-12-03T12:52:59.868Z,3.15
2022-12-03T12:53:59.868Z,3.19
2022-12-03T12:55:04.706Z,3.30
2022-12-03T12:56:00.857Z,3.31
2022-12-03T12:56:59.913Z,3.22
2022-12-03T12:57:59.807Z,3.18
2022-12-03T12:58:59.872Z,3.15
2022-12-03T12:59:59.798Z,3.15
2022-12-03T13:00:59.854Z,3.19
2022-12-03T13:01:59.907Z,3.15
2022-12-03T13:02:59.867Z,3.19
2022-12-03T13:03:59.756Z,3.27
2022-12-03T13:04:59.734Z,3.34
2022-12-03T13:05:59.716Z,3.34
2022-12-03T13:06:59.740Z,3.30
2022-12-03T13:07:59.778Z,3.33
2022-12-03T13:08:59.751Z,3.34
2022-12-03T13:09:59.764Z,3.19
2022-12-03T13:10:59.695Z,3.06
2022-12-03T13:11:59.663Z,3.03
2022-12-03T13:12:59.732Z,3.08
2022-12-03T13:13:59.770Z,3.06
2022-12-03T13:14:59.663Z,3.08
2022-12-03T13:15:59.740Z,3.03
2022-12-03T13:16:59.710Z,3.08
2022-12-03T13:17:59.676Z,3.12